Time;durP1;ratioP1;P1;durP2;ratioP2;P2;SDS_P1;SDS_P2;PMS_P1;PMS_P2;Temp;Humidity;BMP_temperature;BMP_pressure;BME280_temperature;BME280_humidity;BME280_pressure;Samples;Min_cycle;Max_cycle;Signal;HPM_P1;HPM_P2
2022/07/30 00:00:08;;;;;;;11.43;7.45;;;16.70;99.90;;;;;;5000676;28;20049;-56
2022/07/30 00:02:35;;;;;;;10.15;7.35;;;16.70;99.90;;;;;;5016429;28;20044;-56
2022/07/30 00:05:01;;;;;;;11.10;7.57;;;16.70;99.90;;;;;;4993768;28;20037;-56
2022/07/30 00:07:27;;;;;;;10.70;7.75;;;16.60;99.90;;;;;;4994593;28;20483;-55
2022/07/30 00:09:52;;;;;;;12.07;7.38;;;16.60;99.90;;;;;;5012833;28;20069;-55
2022/07/30 00:12:18;;;;;;;10.43;6.97;;;16.60;99.90;;;;;;4997700;28;20032;-56
2022/07/30 00:14:44;;;;;;;11.00;7.43;;;16.50;99.90;;;;;;4997850;28;20560;-53
2022/07/30 00:17:10;;;;;;;13.00;7.80;;;16.50;99.90;;;;;;4997313;28;20492;-52
2022/07/30 00:19:36;;;;;;;9.13;6.80;;;16.40;99.90;;;;;;5015676;28;20037;-55
2022/07/30 00:22:02;;;;;;;10.50;6.75;;;16.30;99.90;;;;;;4997741;28;20042;-56
2022/07/30 00:24:27;;;;;;;7.82;6.72;;;16.30;99.90;;;;;;5001464;28;20037;-57
2022/07/30 00:26:53;;;;;;;8.90;6.70;;;16.30;99.90;;;;;;5001267;28;20492;-56
2022/07/30 00:29:19;;;;;;;10.00;7.88;;;16.20;99.90;;;;;;5015487;28;20038;-56
2022/07/30 00:31:45;;;;;;;10.05;8.48;;;16.20;99.90;;;;;;5001914;28;20331;-52
2022/07/30 00:34:13;;;;;;;9.80;7.63;;;16.10;99.90;;;;;;5001343;28;20090;-55
2022/07/30 00:36:39;;;;;;;13.88;7.93;;;16.10;99.90;;;;;;4982787;28;20083;-52
2022/07/30 00:39:05;;;;;;;11.00;7.70;;;16.10;99.90;;;;;;5013330;28;20065;-55
2022/07/30 00:41:31;;;;;;;12.63;8.10;;;16.00;99.90;;;;;;5014248;28;20350;-53
2022/07/30 00:43:56;;;;;;;10.48;7.95;;;16.00;99.90;;;;;;4995101;28;20046;-55
2022/07/30 00:46:22;;;;;;;9.90;8.32;;;16.00;99.90;;;;;;5005644;28;20476;-56
2022/07/30 00:48:48;;;;;;;13.07;8.52;;;15.90;99.90;;;;;;4999845;28;20053;-56
2022/07/30 00:51:14;;;;;;;8.98;7.88;;;15.90;99.90;;;;;;5014190;28;20531;-56
2022/07/30 00:53:39;;;;;;;9.52;8.10;;;15.90;99.90;;;;;;4988880;28;20131;-57
2022/07/30 00:56:06;;;;;;;9.88;7.05;;;15.90;99.90;;;;;;4984951;28;20037;-54
2022/07/30 00:58:32;;;;;;;10.35;7.60;;;15.80;99.90;;;;;;4997975;28;20485;-55
2022/07/30 01:00:58;;;;;;;10.82;8.68;;;15.80;99.90;;;;;;5002673;28;20430;-53
2022/07/30 01:03:24;;;;;;;9.70;8.05;;;15.80;99.90;;;;;;5018986;28;20407;-52
2022/07/30 01:05:50;;;;;;;10.18;7.72;;;15.70;99.90;;;;;;4999623;28;20046;-57
2022/07/30 01:08:16;;;;;;;8.48;6.85;;;15.70;99.90;;;;;;4991253;28;20045;-56
2022/07/30 01:10:41;;;;;;;14.07;8.95;;;15.60;99.90;;;;;;5003928;28;20470;-52
2022/07/30 01:13:08;;;;;;;9.35;7.88;;;15.60;99.90;;;;;;4999660;28;20570;-54
2022/07/30 01:15:34;;;;;;;12.90;9.55;;;15.50;99.90;;;;;;4997122;28;20037;-51
2022/07/30 01:18:04;;;;;;;11.63;9.32;;;15.40;99.90;;;;;;4998062;28;20038;-53
2022/07/30 01:20:37;;;;;;;9.38;7.90;;;15.30;99.90;;;;;;4991986;28;20749;-55
2022/07/30 01:23:40;;;;;;;10.45;7.72;;;15.20;99.90;;;;;;5009183;28;20630;-53
2022/07/30 01:26:13;;;;;;;10.05;8.68;;;15.20;99.90;;;;;;4993534;28;20053;-56
2022/07/30 01:28:43;;;;;;;11.23;8.40;;;15.30;99.90;;;;;;5015335;28;20045;-52
2022/07/30 01:31:10;;;;;;;9.15;7.40;;;15.20;99.90;;;;;;5017395;28;20033;-51
2022/07/30 01:33:40;;;;;;;13.88;8.98;;;15.20;99.90;;;;;;5017071;28;20067;-53
2022/07/30 01:36:10;;;;;;;11.68;8.20;;;15.30;99.90;;;;;;5001479;28;20029;-54
2022/07/30 01:38:37;;;;;;;10.15;8.32;;;15.30;99.90;;;;;;4996686;28;20041;-53
2022/07/30 01:41:06;;;;;;;9.30;7.40;;;15.20;99.90;;;;;;4998403;28;20056;-53
2022/07/30 01:43:35;;;;;;;11.43;7.80;;;15.30;99.90;;;;;;5003073;28;20191;-56
2022/07/30 01:46:03;;;;;;;8.88;7.97;;;15.20;99.90;;;;;;4993485;28;20033;-53
2022/07/30 01:48:30;;;;;;;11.35;8.07;;;15.20;99.90;;;;;;5017522;28;20103;-56
2022/07/30 01:50:59;;;;;;;8.80;7.25;;;15.20;99.90;;;;;;4997801;28;20500;-55
2022/07/30 01:53:28;;;;;;;8.88;7.35;;;15.20;99.90;;;;;;4999692;28;20042;-51
2022/07/30 01:55:55;;;;;;;10.60;8.60;;;15.20;99.90;;;;;;5020270;28;20037;-55
2022/07/30 01:58:25;;;;;;;10.98;8.40;;;15.10;99.90;;;;;;5020411;28;20475;-53
2022/07/30 02:00:53;;;;;;;8.70;7.80;;;15.10;99.90;;;;;;4994817;28;20579;-55
2022/07/30 02:03:19;;;;;;;6.40;5.22;;;15.10;99.90;;;;;;5008101;28;20041;-55
2022/07/30 02:05:52;;;;;;;14.50;8.48;;;15.10;99.90;;;;;;4999728;28;20064;-57
2022/07/30 02:08:29;;;;;;;10.93;8.90;;;15.10;99.90;;;;;;5008560;28;20155;-56
2022/07/30 02:11:03;;;;;;;10.60;7.47;;;15.10;99.90;;;;;;4995536;28;20088;-56
2022/07/30 02:13:30;;;;;;;11.00;8.65;;;15.10;99.90;;;;;;4995337;28;20287;-52
2022/07/30 02:15:58;;;;;;;9.23;7.38;;;15.00;99.90;;;;;;4991055;28;20111;-57
2022/07/30 02:18:35;;;;;;;11.88;9.38;;;15.00;99.90;;;;;;4991373;28;20034;-53
2022/07/30 02:21:07;;;;;;;12.88;9.18;;;15.10;99.90;;;;;;4998549;28;20049;-57
2022/07/30 02:23:42;;;;;;;11.65;9.18;;;15.00;99.90;;;;;;5015340;28;20385;-56
2022/07/30 02:26:11;;;;;;;11.45;8.80;;;15.00;99.90;;;;;;4998297;28;20099;-52
2022/07/30 02:28:39;;;;;;;9.85;8.20;;;14.90;99.90;;;;;;5002406;28;20071;-54
2022/07/30 02:31:07;;;;;;;11.85;9.82;;;14.90;99.90;;;;;;5003157;28;20115;-57
2022/07/30 02:33:39;;;;;;;9.20;8.20;;;14.90;99.90;;;;;;5009783;28;20046;-53
2022/07/30 02:36:07;;;;;;;14.15;9.70;;;14.80;99.90;;;;;;5004652;28;20045;-53
2022/07/30 02:38:35;;;;;;;12.45;8.65;;;14.80;99.90;;;;;;4987114;28;20445;-52
2022/07/30 02:41:03;;;;;;;12.18;10.30;;;14.70;99.90;;;;;;5020779;28;20052;-56
2022/07/30 02:43:30;;;;;;;7.20;6.20;;;14.70;99.90;;;;;;5018471;28;20045;-54
2022/07/30 02:45:59;;;;;;;12.90;10.27;;;14.70;99.90;;;;;;4997254;28;20124;-55
2022/07/30 02:48:26;;;;;;;12.00;9.88;;;14.70;99.90;;;;;;5003939;28;20419;-52
2022/07/30 02:50:54;;;;;;;12.25;8.73;;;14.70;99.90;;;;;;5012144;28;20151;-54
2022/07/30 02:53:22;;;;;;;12.90;10.20;;;14.70;99.90;;;;;;4999509;28;20466;-54
2022/07/30 02:55:50;;;;;;;12.63;10.00;;;14.70;99.90;;;;;;4998572;28;20049;-54
2022/07/30 02:58:20;;;;;;;11.93;9.75;;;14.60;99.90;;;;;;5003177;28;20033;-57
2022/07/30 03:00:49;;;;;;;10.48;9.20;;;14.60;99.90;;;;;;5001285;28;20868;-55
2022/07/30 03:03:16;;;;;;;12.18;9.10;;;14.50;99.90;;;;;;4999685;28;20065;-53
2022/07/30 03:05:43;;;;;;;14.38;9.00;;;14.50;99.90;;;;;;4999923;28;20085;-53
2022/07/30 03:08:09;;;;;;;11.07;8.35;;;14.50;99.90;;;;;;5001910;28;20044;-55
2022/07/30 03:10:36;;;;;;;15.05;11.32;;;14.40;99.90;;;;;;5001825;28;20077;-56
2022/07/30 03:13:06;;;;;;;17.00;12.98;;;14.40;99.90;;;;;;5020944;28;20069;-54
2022/07/30 03:15:34;;;;;;;20.05;12.68;;;14.40;99.90;;;;;;5004154;28;20064;-56
2022/07/30 03:18:00;;;;;;;15.32;12.57;;;14.30;99.90;;;;;;5003485;28;20472;-56
2022/07/30 03:20:30;;;;;;;14.23;9.55;;;14.30;99.90;;;;;;4996531;28;20084;-52
2022/07/30 03:22:57;;;;;;;25.75;13.50;;;14.20;99.90;;;;;;4997908;28;20046;-57
2022/07/30 03:25:26;;;;;;;15.77;12.93;;;14.20;99.90;;;;;;5019067;28;20052;-55
2022/07/30 03:27:54;;;;;;;15.98;11.02;;;14.20;99.90;;;;;;4990318;28;20041;-54
2022/07/30 03:30:22;;;;;;;7.78;6.85;;;14.30;99.90;;;;;;5014066;28;20091;-57
2022/07/30 03:32:50;;;;;;;12.20;9.35;;;14.30;99.90;;;;;;5010713;28;20166;-55
2022/07/30 03:35:16;;;;;;;10.13;9.13;;;14.30;99.90;;;;;;5012719;28;20500;-57
2022/07/30 03:37:42;;;;;;;9.02;8.13;;;14.40;99.90;;;;;;4996420;28;20049;-54
2022/07/30 03:40:09;;;;;;;8.30;7.45;;;14.40;99.90;;;;;;4983070;28;20033;-57
2022/07/30 03:42:35;;;;;;;9.82;8.80;;;14.30;99.90;;;;;;4957926;28;20412;-54
2022/07/30 03:45:05;;;;;;;9.93;8.52;;;14.30;99.90;;;;;;4973274;28;20037;-56
2022/07/30 03:47:32;;;;;;;8.60;7.60;;;14.20;99.90;;;;;;4996548;28;20052;-57
2022/07/30 03:49:59;;;;;;;9.95;8.73;;;14.20;99.90;;;;;;5008106;28;20460;-51
2022/07/30 03:52:26;;;;;;;9.88;8.57;;;14.10;99.90;;;;;;4993153;28;20100;-56
2022/07/30 03:54:52;;;;;;;11.20;8.57;;;14.10;99.90;;;;;;5009442;28;20308;-54
2022/07/30 03:57:18;;;;;;;10.73;7.93;;;14.00;99.90;;;;;;5022873;28;20043;-54
2022/07/30 03:59:45;;;;;;;8.38;6.93;;;14.00;99.90;;;;;;4995502;28;20128;-53
2022/07/30 04:02:12;;;;;;;7.70;6.90;;;14.00;99.90;;;;;;5014996;28;20052;-56
2022/07/30 04:04:42;;;;;;;7.57;6.28;;;14.00;99.90;;;;;;5000413;28;20045;-57
2022/07/30 04:07:08;;;;;;;7.22;5.63;;;13.90;99.90;;;;;;5000428;28;20179;-54
2022/07/30 04:09:34;;;;;;;6.57;5.57;;;14.00;99.90;;;;;;5014202;28;20397;-56
2022/07/30 04:11:59;;;;;;;5.35;4.10;;;13.90;99.90;;;;;;5019395;28;20049;-55
2022/07/30 04:14:25;;;;;;;7.45;6.43;;;14.00;99.90;;;;;;5004796;28;20502;-57
2022/07/30 04:17:21;;;;;;;6.07;5.47;;;14.00;99.90;;;;;;5021699;28;20365;-55
2022/07/30 04:19:59;;;;;;;5.65;5.00;;;14.00;99.90;;;;;;5008497;28;20069;-54
2022/07/30 04:22:29;;;;;;;9.05;6.88;;;14.00;99.90;;;;;;5015607;28;20045;-57
2022/07/30 04:24:56;;;;;;;6.05;4.82;;;14.00;99.90;;;;;;4998191;28;20480;-54
2022/07/30 04:27:24;;;;;;;8.20;6.35;;;14.00;99.90;;;;;;5005428;28;20708;-58
2022/07/30 04:29:51;;;;;;;7.45;6.68;;;14.00;99.90;;;;;;4992215;28;20174;-53
2022/07/30 04:32:18;;;;;;;7.32;6.63;;;14.00;99.90;;;;;;4990187;28;20049;-54
2022/07/30 04:34:52;;;;;;;7.45;5.97;;;14.30;99.90;;;;;;5007296;28;20048;-52
2022/07/30 04:37:22;;;;;;;7.50;6.32;;;14.00;99.90;;;;;;4990920;28;20080;-57
2022/07/30 04:39:52;;;;;;;8.68;6.70;;;14.00;99.90;;;;;;5020758;28;20041;-54
2022/07/30 04:42:22;;;;;;;6.25;5.50;;;14.10;99.90;;;;;;5014267;28;20084;-55
2022/07/30 04:44:48;;;;;;;7.40;6.32;;;14.10;99.90;;;;;;5001812;28;20064;-52
2022/07/30 04:47:14;;;;;;;8.85;6.47;;;14.10;99.90;;;;;;4998006;28;20034;-53
2022/07/30 04:49:41;;;;;;;8.38;7.03;;;14.10;99.90;;;;;;5016272;28;20077;-55
2022/07/30 04:52:09;;;;;;;12.52;7.53;;;14.10;99.90;;;;;;4996290;28;20072;-55
2022/07/30 04:54:45;;;;;;;8.85;7.90;;;14.20;99.90;;;;;;5012151;28;20128;-54
2022/07/30 04:57:12;;;;;;;10.20;7.43;;;14.20;99.90;;;;;;5001798;28;20077;-51
2022/07/30 04:59:38;;;;;;;8.85;5.97;;;14.30;99.90;;;;;;4999374;28;20087;-52
2022/07/30 05:02:06;;;;;;;7.80;7.00;;;14.30;99.90;;;;;;4997286;28;20041;-54
2022/07/30 05:04:34;;;;;;;8.65;7.43;;;14.30;99.90;;;;;;5036771;23;20036;-56
2022/07/30 05:07:01;;;;;;;8.18;6.90;;;14.30;99.90;;;;;;5064708;28;20068;-54
2022/07/30 05:09:27;;;;;;;9.77;7.45;;;14.40;99.90;;;;;;5055328;28;20032;-55
2022/07/30 05:11:54;;;;;;;9.43;7.80;;;14.40;99.90;;;;;;5034480;28;20500;-58
2022/07/30 05:14:21;;;;;;;8.93;8.02;;;14.50;99.90;;;;;;5034832;28;20487;-56
2022/07/30 05:16:47;;;;;;;10.50;7.93;;;14.60;99.90;;;;;;5031419;28;20110;-58
2022/07/30 05:19:13;;;;;;;9.13;7.70;;;14.60;99.90;;;;;;5030014;28;21094;-55
2022/07/30 05:21:39;;;;;;;8.73;6.20;;;14.60;99.90;;;;;;5037301;28;20505;-58
2022/07/30 05:24:05;;;;;;;10.48;8.13;;;14.70;99.90;;;;;;5037230;28;20056;-55
2022/07/30 05:26:31;;;;;;;10.80;8.05;;;14.80;99.90;;;;;;5043897;28;20045;-58
2022/07/30 05:28:57;;;;;;;8.98;7.20;;;14.90;99.90;;;;;;5045706;28;20049;-58
2022/07/30 05:31:24;;;;;;;10.13;8.02;;;15.00;99.90;;;;;;5016798;28;20392;-57
2022/07/30 05:33:49;;;;;;;8.85;7.90;;;15.10;99.90;;;;;;5029949;28;20079;-56
2022/07/30 05:36:15;;;;;;;7.20;6.13;;;15.10;99.90;;;;;;5031607;28;20458;-58
2022/07/30 05:38:41;;;;;;;12.13;8.60;;;15.30;99.90;;;;;;5035981;28;20036;-56
2022/07/30 05:41:06;;;;;;;11.60;9.10;;;15.30;99.90;;;;;;5032165;28;20044;-55
2022/07/30 05:43:32;;;;;;;9.27;7.85;;;15.40;99.90;;;;;;5045909;28;20403;-54
2022/07/30 05:45:58;;;;;;;20.95;9.35;;;15.50;99.90;;;;;;5014817;28;20228;-53
2022/07/30 05:48:25;;;;;;;10.50;9.02;;;15.60;99.90;;;;;;5038113;28;20491;-52
2022/07/30 05:50:51;;;;;;;9.90;7.60;;;15.80;99.90;;;;;;5050720;28;20041;-57
2022/07/30 05:53:16;;;;;;;11.10;9.27;;;15.90;99.90;;;;;;5033935;28;20137;-57
2022/07/30 05:55:42;;;;;;;12.73;8.98;;;16.10;99.90;;;;;;5030362;28;20136;-58
2022/07/30 05:58:08;;;;;;;11.20;8.43;;;16.20;99.90;;;;;;5032722;28;20048;-58
2022/07/30 06:00:34;;;;;;;11.07;8.68;;;16.40;99.90;;;;;;5029028;28;20045;-55
2022/07/30 06:03:00;;;;;;;11.80;8.65;;;16.50;99.90;;;;;;5033459;28;20061;-55
2022/07/30 06:05:27;;;;;;;12.02;8.50;;;16.60;99.90;;;;;;5045015;28;20049;-55
2022/07/30 06:07:53;;;;;;;16.67;8.85;;;16.70;99.90;;;;;;5034390;28;20518;-58
2022/07/30 06:10:19;;;;;;;12.57;7.03;;;16.90;99.90;;;;;;5015792;28;20052;-56
2022/07/30 06:12:45;;;;;;;13.48;8.98;;;16.90;99.90;;;;;;5037046;28;20036;-57
2022/07/30 06:15:10;;;;;;;14.45;8.93;;;17.10;99.90;;;;;;5034872;28;20091;-58
2022/07/30 06:17:44;;;;;;;11.65;8.85;;;17.20;99.90;;;;;;5035554;28;20073;-58
2022/07/30 06:20:11;;;;;;;14.93;8.73;;;17.20;99.90;;;;;;5032216;28;20033;-56
2022/07/30 06:22:37;;;;;;;13.50;8.20;;;17.30;99.90;;;;;;5026967;28;20151;-57
2022/07/30 06:25:04;;;;;;;14.95;9.07;;;17.40;99.90;;;;;;5023169;28;20154;-57
2022/07/30 06:27:32;;;;;;;12.07;8.90;;;17.50;99.90;;;;;;5038368;28;20263;-59
2022/07/30 06:30:03;;;;;;;14.88;9.32;;;17.70;99.90;;;;;;5020633;28;20300;-58
2022/07/30 06:32:29;;;;;;;11.02;8.35;;;17.70;99.90;;;;;;5028856;28;20415;-59
2022/07/30 06:34:54;;;;;;;15.20;8.60;;;17.80;99.90;;;;;;5035171;28;20037;-58
2022/07/30 06:37:20;;;;;;;17.05;8.55;;;18.00;99.90;;;;;;5010627;28;20099;-59
2022/07/30 06:39:46;;;;;;;16.15;9.30;;;18.10;99.90;;;;;;5014787;28;20043;-56
2022/07/30 06:42:12;;;;;;;16.10;9.57;;;18.20;99.90;;;;;;5028218;28;20037;-58
2022/07/30 06:44:38;;;;;;;14.98;8.13;;;18.40;99.90;;;;;;5027998;28;20060;-57
2022/07/30 06:47:03;;;;;;;13.45;7.32;;;18.40;99.90;;;;;;5031668;28;21967;-56
2022/07/30 06:49:36;;;;;;;15.75;8.52;;;18.40;99.90;;;;;;5046523;28;20493;-59
2022/07/30 06:52:02;;;;;;;14.43;8.50;;;18.50;99.90;;;;;;5024030;28;20105;-59
2022/07/30 06:54:27;;;;;;;13.68;8.07;;;18.50;99.90;;;;;;5026102;28;20045;-55
2022/07/30 06:56:53;;;;;;;14.48;7.93;;;18.60;99.90;;;;;;5041354;28;20052;-57
2022/07/30 06:59:19;;;;;;;13.05;7.65;;;18.50;99.90;;;;;;5041654;28;20505;-57
2022/07/30 07:01:45;;;;;;;16.58;7.43;;;18.60;99.90;;;;;;5022939;28;20582;-59
2022/07/30 07:04:11;;;;;;;11.85;7.78;;;18.60;99.90;;;;;;5026772;28;20669;-58
2022/07/30 07:06:37;;;;;;;15.00;8.15;;;18.70;99.90;;;;;;5030082;28;20037;-59
2022/07/30 07:09:03;;;;;;;11.23;6.80;;;18.80;99.90;;;;;;5046167;28;20298;-54
2022/07/30 07:11:30;;;;;;;13.00;7.43;;;18.90;99.90;;;;;;5035980;28;20098;-59
2022/07/30 07:13:55;;;;;;;12.23;6.93;;;18.90;99.90;;;;;;5051903;28;20448;-55
2022/07/30 07:16:24;;;;;;;11.10;6.90;;;19.00;99.90;;;;;;5034329;28;20063;-57
2022/07/30 07:18:53;;;;;;;10.70;7.38;;;19.10;99.90;;;;;;5028151;28;20103;-58
2022/07/30 07:21:20;;;;;;;10.32;6.88;;;19.20;99.90;;;;;;5029489;28;20049;-55
2022/07/30 07:23:47;;;;;;;11.35;6.07;;;19.30;99.90;;;;;;5043515;28;20045;-57
2022/07/30 07:26:13;;;;;;;11.60;6.45;;;19.30;99.90;;;;;;5025643;28;20045;-62
2022/07/30 07:28:39;;;;;;;12.10;7.07;;;19.10;99.90;;;;;;5009394;28;20048;-58
2022/07/30 07:31:06;;;;;;;11.43;6.72;;;19.00;99.90;;;;;;5028163;28;20507;-54
2022/07/30 07:33:32;;;;;;;12.15;6.90;;;19.00;99.90;;;;;;5049631;28;20112;-60
2022/07/30 07:35:57;;;;;;;15.07;7.05;;;19.10;99.90;;;;;;5048006;28;20051;-56
2022/07/30 07:38:23;;;;;;;12.05;6.47;;;19.30;99.90;;;;;;5033908;28;20040;-58
2022/07/30 07:40:49;;;;;;;12.32;6.07;;;19.40;99.90;;;;;;5043553;28;20095;-56
2022/07/30 07:43:14;;;;;;;10.88;4.97;;;19.40;99.90;;;;;;5033176;28;20072;-58
2022/07/30 07:45:44;;;;;;;8.48;4.95;;;19.20;99.90;;;;;;5030427;28;20036;-59
2022/07/30 07:48:10;;;;;;;10.60;4.85;;;19.20;99.90;;;;;;5035642;28;20731;-56
2022/07/30 07:50:35;;;;;;;9.18;5.22;;;19.30;99.90;;;;;;5035753;28;20082;-57
2022/07/30 07:53:01;;;;;;;9.15;4.80;;;19.40;99.90;;;;;;5041718;28;20040;-59
2022/07/30 07:55:27;;;;;;;11.93;4.70;;;19.60;99.90;;;;;;5021063;28;20495;-57
2022/07/30 07:57:53;;;;;;;11.75;5.13;;;19.50;99.90;;;;;;5048965;28;20137;-59
2022/07/30 08:00:18;;;;;;;12.88;5.43;;;19.70;99.90;;;;;;5038154;28;20443;-58
2022/07/30 08:02:45;;;;;;;9.80;5.30;;;19.90;99.90;;;;;;5040604;28;20107;-58
2022/07/30 08:05:11;;;;;;;12.63;5.35;;;20.00;99.90;;;;;;5037235;28;20052;-58
2022/07/30 08:07:41;;;;;;;7.65;4.63;;;20.00;99.90;;;;;;5018900;28;21562;-58
2022/07/30 08:10:07;;;;;;;13.55;5.55;;;20.10;99.90;;;;;;5043884;28;20056;-58
2022/07/30 08:12:33;;;;;;;8.07;4.60;;;20.20;99.90;;;;;;5051017;28;20514;-57
2022/07/30 08:14:59;;;;;;;8.98;4.95;;;20.20;99.90;;;;;;5045836;28;20037;-57
2022/07/30 08:17:25;;;;;;;7.68;4.10;;;20.30;99.90;;;;;;5043184;28;20036;-57
2022/07/30 08:19:51;;;;;;;9.85;4.53;;;20.50;99.90;;;;;;5040606;28;20468;-56
2022/07/30 08:22:17;;;;;;;8.63;4.28;;;20.60;99.90;;;;;;5043326;28;20043;-58
2022/07/30 08:24:43;;;;;;;8.23;4.70;;;20.50;99.90;;;;;;5042408;28;20123;-58
2022/07/30 08:27:09;;;;;;;10.77;4.45;;;20.50;99.90;;;;;;5043275;28;20387;-58
2022/07/30 08:29:34;;;;;;;7.50;4.18;;;20.60;99.90;;;;;;5046378;28;20502;-57
2022/07/30 08:32:01;;;;;;;10.80;4.25;;;20.60;99.90;;;;;;5058431;28;20045;-59
2022/07/30 08:34:28;;;;;;;6.70;3.53;;;20.40;99.90;;;;;;5043312;28;20037;-58
2022/07/30 08:36:54;;;;;;;6.38;3.85;;;20.40;99.90;;;;;;5046791;28;20048;-55
2022/07/30 08:39:20;;;;;;;6.05;3.83;;;20.20;99.90;;;;;;5042879;28;20096;-59
2022/07/30 08:41:47;;;;;;;8.50;4.00;;;20.40;99.90;;;;;;5058590;28;20123;-59
2022/07/30 08:44:15;;;;;;;5.40;3.70;;;20.60;99.90;;;;;;5043658;28;20140;-57
2022/07/30 08:46:42;;;;;;;7.90;4.43;;;20.80;99.90;;;;;;5041690;28;20401;-57
2022/07/30 08:49:10;;;;;;;5.15;3.35;;;21.00;99.90;;;;;;5044539;28;20471;-58
2022/07/30 08:51:37;;;;;;;10.07;4.00;;;21.30;99.90;;;;;;5040278;28;20041;-58
2022/07/30 08:54:04;;;;;;;6.53;3.83;;;21.00;99.90;;;;;;5042464;28;20088;-58
2022/07/30 08:56:32;;;;;;;7.25;3.67;;;20.70;99.90;;;;;;5036877;28;20774;-57
2022/07/30 08:59:03;;;;;;;6.70;3.22;;;20.80;99.90;;;;;;5052334;28;20045;-57
2022/07/30 09:01:28;;;;;;;7.55;3.60;;;21.10;99.90;;;;;;5044002;28;20051;-58
2022/07/30 09:03:54;;;;;;;5.38;4.03;;;21.50;99.90;;;;;;5040608;28;20507;-57
2022/07/30 09:06:20;;;;;;;7.07;3.20;;;21.60;99.90;;;;;;5043191;28;20052;-55
2022/07/30 09:08:46;;;;;;;5.85;3.55;;;21.50;99.90;;;;;;5043982;28;20040;-57
2022/07/30 09:11:11;;;;;;;8.05;3.65;;;21.40;99.90;;;;;;5043203;28;20044;-58
2022/07/30 09:13:43;;;;;;;9.27;3.70;;;21.40;99.90;;;;;;5044177;28;20102;-58
2022/07/30 09:16:25;;;;;;;8.85;3.25;;;21.60;99.90;;;;;;5039146;28;20127;-58
2022/07/30 09:18:52;;;;;;;7.93;3.33;;;21.90;99.90;;;;;;5052031;28;20041;-58
2022/07/30 09:21:25;;;;;;;11.45;3.47;;;21.70;99.90;;;;;;5031192;28;20029;-57
2022/07/30 09:24:16;;;;;;;3.78;2.75;;;21.80;99.90;;;;;;5036045;28;20052;-55
2022/07/30 09:26:56;;;;;;;5.93;3.03;;;21.70;99.60;;;;;;5043195;28;20048;-58
2022/07/30 09:29:26;;;;;;;10.43;3.92;;;22.00;99.90;;;;;;5057965;28;20052;-58
2022/07/30 09:32:02;;;;;;;9.02;3.58;;;22.20;99.90;;;;;;5015622;28;20450;-57
2022/07/30 09:34:34;;;;;;;8.30;4.65;;;22.00;99.90;;;;;;5037146;28;20131;-57
2022/07/30 09:37:03;;;;;;;7.50;4.07;;;21.30;99.90;;;;;;5036227;28;20068;-58
2022/07/30 09:39:36;;;;;;;7.25;3.60;;;21.40;99.90;;;;;;5038421;28;20037;-58
2022/07/30 09:42:16;;;;;;;11.27;4.22;;;21.70;99.90;;;;;;5036009;28;20569;-57
2022/07/30 09:44:42;;;;;;;10.02;4.18;;;21.90;99.90;;;;;;5043043;28;20043;-57
2022/07/30 09:47:08;;;;;;;6.20;3.38;;;22.00;99.90;;;;;;5039017;28;20053;-58
2022/07/30 09:49:33;;;;;;;11.88;3.78;;;22.20;99.90;;;;;;5021412;28;20045;-55
2022/07/30 09:51:59;;;;;;;6.13;3.80;;;22.00;99.90;;;;;;5031957;28;20041;-58
2022/07/30 09:54:46;;;;;;;8.32;3.75;;;22.10;99.90;;;;;;5052330;28;20099;-57
2022/07/30 09:57:12;;;;;;;6.63;4.05;;;22.20;99.90;;;;;;5032625;28;20163;-57
2022/07/30 09:59:37;;;;;;;7.78;3.97;;;22.50;99.80;;;;;;5017936;28;20167;-58
2022/07/30 10:02:03;;;;;;;8.93;3.63;;;22.30;99.40;;;;;;5024328;28;20041;-57
2022/07/30 10:04:31;;;;;;;9.05;3.65;;;22.20;99.60;;;;;;5057697;28;20045;-57
2022/07/30 10:06:58;;;;;;;6.22;3.65;;;22.30;99.80;;;;;;5038456;28;20099;-58
2022/07/30 10:09:26;;;;;;;6.85;4.00;;;22.50;99.80;;;;;;5042005;28;20155;-60
2022/07/30 10:11:55;;;;;;;7.93;3.92;;;22.60;99.50;;;;;;5041662;28;20048;-61
2022/07/30 10:14:23;;;;;;;8.77;3.63;;;22.80;99.40;;;;;;5040427;28;20403;-57
2022/07/30 10:16:50;;;;;;;6.82;3.42;;;22.80;98.90;;;;;;5042624;28;20044;-57
2022/07/30 10:19:17;;;;;;;6.85;3.47;;;22.70;99.10;;;;;;5043829;28;20567;-57
2022/07/30 10:21:44;;;;;;;6.47;3.25;;;22.90;99.00;;;;;;5037856;28;20120;-57
2022/07/30 10:24:10;;;;;;;9.20;3.70;;;22.70;97.60;;;;;;5050569;28;20073;-59
2022/07/30 10:26:36;;;;;;;8.30;4.00;;;22.90;98.60;;;;;;5022145;28;20815;-59
2022/07/30 10:29:03;;;;;;;7.80;3.53;;;22.90;98.50;;;;;;5039820;28;20053;-58
2022/07/30 10:31:29;;;;;;;5.57;2.80;;;23.00;99.20;;;;;;5056192;28;20516;-58
2022/07/30 10:33:56;;;;;;;7.82;3.08;;;23.10;98.60;;;;;;5057909;28;20128;-59
2022/07/30 10:36:24;;;;;;;4.85;2.85;;;23.30;98.40;;;;;;5036843;28;21070;-57
2022/07/30 10:38:50;;;;;;;9.85;3.35;;;23.70;98.20;;;;;;5025113;28;20081;-60
2022/07/30 10:41:51;;;;;;;6.75;3.72;;;24.00;98.80;;;;;;5037578;28;20120;-57
2022/07/30 10:44:40;;;;;;;7.05;3.67;;;23.40;97.50;;;;;;5003882;28;20190;-60
2022/07/30 10:47:20;;;;;;;9.23;2.92;;;23.40;97.60;;;;;;5042996;28;20056;-58
2022/07/30 10:50:05;;;;;;;6.78;3.40;;;23.50;98.00;;;;;;5041835;28;20102;-62
2022/07/30 10:52:51;;;;;;;5.35;2.42;;;23.30;96.30;;;;;;5043785;28;20028;-60
2022/07/30 10:55:23;;;;;;;8.15;2.50;;;23.30;95.70;;;;;;5057634;28;20275;-55
2022/07/30 10:58:02;;;;;;;7.63;2.85;;;23.20;96.70;;;;;;5037461;28;20083;-58
2022/07/30 11:00:31;;;;;;;6.57;2.58;;;23.50;96.70;;;;;;5041351;28;20041;-59
2022/07/30 11:03:12;;;;;;;4.30;2.22;;;23.80;97.20;;;;;;5047041;28;20035;-60
2022/07/30 11:05:37;;;;;;;6.15;2.80;;;24.10;95.60;;;;;;5040389;22;20053;-57
2022/07/30 11:08:28;;;;;;;5.18;2.25;;;24.20;96.30;;;;;;5013084;28;20038;-57
2022/07/30 11:10:54;;;;;;;5.30;2.47;;;24.30;96.50;;;;;;5020556;28;20061;-56
2022/07/30 11:13:56;;;;;;;7.70;2.47;;;24.60;96.10;;;;;;5025008;28;20484;-56
2022/07/30 11:16:43;;;;;;;5.95;2.58;;;24.50;94.30;;;;;;5012770;28;20382;-56
2022/07/30 11:19:17;;;;;;;8.02;2.45;;;24.30;95.60;;;;;;5023112;28;20037;-56
2022/07/30 11:21:46;;;;;;;5.22;2.50;;;24.20;95.60;;;;;;5014920;28;20045;-57
2022/07/30 11:24:42;;;;;;;5.85;2.58;;;24.20;95.90;;;;;;5021842;28;20386;-58
2022/07/30 11:27:07;;;;;;;3.47;1.92;;;24.30;95.50;;;;;;5022042;28;20076;-57
2022/07/30 11:29:39;;;;;;;4.75;2.35;;;24.40;95.40;;;;;;5025861;28;20689;-55
2022/07/30 11:32:27;;;;;;;4.47;2.40;;;24.50;94.90;;;;;;5008999;28;20041;-57
2022/07/30 11:35:23;;;;;;;6.03;2.17;;;24.60;94.40;;;;;;5015444;28;20055;-57
2022/07/30 11:37:58;;;;;;;4.82;2.60;;;24.80;94.80;;;;;;5012481;28;20094;-58
2022/07/30 11:40:27;;;;;;;7.35;2.65;;;24.20;94.60;;;;;;5018012;28;20503;-57
2022/07/30 11:43:27;;;;;;;4.68;2.55;;;23.70;94.20;;;;;;5017160;28;20448;-57
2022/07/30 11:46:16;;;;;;;6.68;2.63;;;23.90;95.40;;;;;;5037423;28;20133;-57
2022/07/30 11:49:09;;;;;;;4.97;2.20;;;24.20;94.80;;;;;;5021942;28;20131;-57
2022/07/30 11:51:45;;;;;;;3.85;2.13;;;24.50;94.90;;;;;;5017911;28;20112;-57
2022/07/30 11:54:11;;;;;;;5.40;2.13;;;24.80;93.80;;;;;;5021934;28;20084;-57
2022/07/30 11:56:47;;;;;;;5.97;2.00;;;24.90;94.10;;;;;;5024180;28;20033;-57
2022/07/30 11:59:13;;;;;;;7.90;2.83;;;25.00;92.50;;;;;;5024967;28;20089;-57
2022/07/30 12:01:40;;;;;;;3.95;1.80;;;24.90;93.30;;;;;;5022980;28;20069;-57
2022/07/30 12:04:07;;;;;;;5.28;2.10;;;24.80;93.20;;;;;;5006417;28;20311;-57
2022/07/30 12:06:41;;;;;;;7.38;2.10;;;24.50;92.10;;;;;;5002327;28;20049;-57
2022/07/30 12:09:07;;;;;;;5.03;1.90;;;24.30;93.30;;;;;;5002268;28;20095;-57
2022/07/30 12:11:35;;;;;;;4.63;2.30;;;24.40;94.00;;;;;;5017536;28;20136;-58
2022/07/30 12:14:02;;;;;;;6.68;2.10;;;24.90;94.20;;;;;;5003413;28;20045;-57
2022/07/30 12:16:29;;;;;;;2.58;1.70;;;25.30;93.40;;;;;;5020582;28;20049;-57
2022/07/30 12:19:04;;;;;;;5.90;2.55;;;25.10;92.10;;;;;;5014551;28;20042;-57
2022/07/30 12:21:30;;;;;;;3.95;1.92;;;24.00;91.20;;;;;;5006236;28;20040;-57
2022/07/30 12:24:08;;;;;;;4.38;1.65;;;24.30;92.90;;;;;;5025248;28;20045;-57
2022/07/30 12:26:35;;;;;;;3.70;1.90;;;24.30;91.50;;;;;;5019980;28;20073;-57
2022/07/30 12:29:04;;;;;;;4.40;1.88;;;24.20;92.70;;;;;;5020671;28;20049;-58
2022/07/30 12:31:32;;;;;;;5.60;1.80;;;24.70;91.90;;;;;;5018646;28;20584;-58
2022/07/30 12:33:59;;;;;;;2.50;1.50;;;25.00;92.00;;;;;;5021662;28;20392;-58
2022/07/30 12:36:34;;;;;;;4.78;1.73;;;25.30;90.80;;;;;;5021219;28;20107;-57
2022/07/30 12:39:05;;;;;;;3.90;1.55;;;25.50;91.70;;;;;;5020067;28;20045;-59
2022/07/30 12:41:45;;;;;;;3.60;1.85;;;25.40;90.20;;;;;;5019744;28;20492;-59
2022/07/30 12:44:43;;;;;;;4.47;2.00;;;25.40;91.50;;;;;;5016883;28;20041;-58
2022/07/30 12:47:19;;;;;;;3.80;1.92;;;25.50;90.20;;;;;;5008679;28;20041;-57
2022/07/30 12:49:47;;;;;;;4.38;1.40;;;25.40;90.60;;;;;;5017491;28;20130;-60
2022/07/30 12:52:39;;;;;;;3.97;1.52;;;25.10;87.40;;;;;;5020855;28;20045;-58